Original METAR for KZZV:
072153Z 11004KT 10SM CLR 28/22 A3012 RMK AO2 SLP191 T02780222

Wind: 110° at 4 knots
Visibility: 10 statute miles
Sky conditions: Clear
Temperature: 82.4°F
Dew Point: 71.6°F
Altimeter: 30.12

Remarks:
-- METAR generated by an automated station with a precipitation discriminator.
-- Sea level pressure: 1,019.1 millibars.
-- Precise hourly temperature and dew point: 27.8°C / 22.2°C

NOTE:
This METAR was retrieved from metars.com at:
http://www.metars.com/stations/KZZV.html


Cessnas2Oshkosh, C2O, CessnaBaseCamp and The Pirep | Testimonials | Donations | FAQ | Privacy | Contact Us
are trademarks of Cessnas 2 Oshkosh, Inc. - Dothan, AL Copyright © 2008 - 2022 Cessnas 2 Oshkosh, Inc. All rights reserved.